sensor_id;sensor_type;location;lat;lon;timestamp;P1;durP1;ratioP1;P2;durP2;ratioP2
51304;SDS011;37392;50.964;6.952;2024-02-28T00:01:24;65.30;;;25.30;;
51304;SDS011;37392;50.964;6.952;2024-02-28T00:03:50;81.25;;;28.15;;
51304;SDS011;37392;50.964;6.952;2024-02-28T00:06:16;76.30;;;27.17;;
51304;SDS011;37392;50.964;6.952;2024-02-28T00:08:44;73.00;;;27.83;;
51304;SDS011;37392;50.964;6.952;2024-02-28T00:11:11;76.57;;;25.25;;
51304;SDS011;37392;50.964;6.952;2024-02-28T00:13:36;67.30;;;25.85;;
51304;SDS011;37392;50.964;6.952;2024-02-28T00:16:02;76.32;;;26.60;;
51304;SDS011;37392;50.964;6.952;2024-02-28T00:18:28;77.05;;;29.33;;
51304;SDS011;37392;50.964;6.952;2024-02-28T00:20:56;75.38;;;27.80;;
51304;SDS011;37392;50.964;6.952;2024-02-28T00:23:21;79.07;;;29.20;;
51304;SDS011;37392;50.964;6.952;2024-02-28T00:25:47;74.20;;;30.40;;
51304;SDS011;37392;50.964;6.952;2024-02-28T00:28:12;77.07;;;29.13;;
51304;SDS011;37392;50.964;6.952;2024-02-28T00:30:38;73.47;;;27.20;;
51304;SDS011;37392;50.964;6.952;2024-02-28T00:33:03;68.68;;;26.23;;
51304;SDS011;37392;50.964;6.952;2024-02-28T00:35:32;79.18;;;28.98;;
51304;SDS011;37392;50.964;6.952;2024-02-28T00:37:59;74.40;;;28.52;;
51304;SDS011;37392;50.964;6.952;2024-02-28T00:40:25;79.15;;;29.38;;
51304;SDS011;37392;50.964;6.952;2024-02-28T00:42:51;87.40;;;30.65;;
51304;SDS011;37392;50.964;6.952;2024-02-28T00:45:16;74.85;;;29.15;;
51304;SDS011;37392;50.964;6.952;2024-02-28T00:47:42;81.18;;;30.27;;
51304;SDS011;37392;50.964;6.952;2024-02-28T00:50:08;85.78;;;31.27;;
51304;SDS011;37392;50.964;6.952;2024-02-28T00:52:34;88.43;;;29.95;;
51304;SDS011;37392;50.964;6.952;2024-02-28T00:55:00;79.50;;;31.95;;
51304;SDS011;37392;50.964;6.952;2024-02-28T00:57:25;85.55;;;31.42;;
51304;SDS011;37392;50.964;6.952;2024-02-28T00:59:51;87.25;;;31.08;;
51304;SDS011;37392;50.964;6.952;2024-02-28T01:02:16;87.47;;;32.83;;
51304;SDS011;37392;50.964;6.952;2024-02-28T01:04:42;80.47;;;29.85;;
51304;SDS011;37392;50.964;6.952;2024-02-28T01:07:07;83.55;;;31.58;;
51304;SDS011;37392;50.964;6.952;2024-02-28T01:09:33;80.78;;;31.27;;
51304;SDS011;37392;50.964;6.952;2024-02-28T01:11:58;82.68;;;32.70;;
51304;SDS011;37392;50.964;6.952;2024-02-28T01:14:24;93.88;;;32.17;;
51304;SDS011;37392;50.964;6.952;2024-02-28T01:16:52;79.63;;;31.52;;
51304;SDS011;37392;50.964;6.952;2024-02-28T01:19:18;81.95;;;29.65;;
51304;SDS011;37392;50.964;6.952;2024-02-28T01:21:43;89.65;;;32.17;;
51304;SDS011;37392;50.964;6.952;2024-02-28T01:24:09;101.63;;;34.30;;
51304;SDS011;37392;50.964;6.952;2024-02-28T01:26:34;84.05;;;35.72;;
51304;SDS011;37392;50.964;6.952;2024-02-28T01:29:00;81.32;;;33.17;;
51304;SDS011;37392;50.964;6.952;2024-02-28T01:31:25;89.63;;;33.83;;
51304;SDS011;37392;50.964;6.952;2024-02-28T01:33:51;82.07;;;32.75;;
51304;SDS011;37392;50.964;6.952;2024-02-28T01:36:16;80.55;;;33.33;;
51304;SDS011;37392;50.964;6.952;2024-02-28T01:38:42;85.63;;;33.60;;
51304;SDS011;37392;50.964;6.952;2024-02-28T01:41:07;93.03;;;34.20;;
51304;SDS011;37392;50.964;6.952;2024-02-28T01:43:33;88.35;;;34.90;;
51304;SDS011;37392;50.964;6.952;2024-02-28T01:45:59;84.45;;;34.45;;
51304;SDS011;37392;50.964;6.952;2024-02-28T01:48:28;90.90;;;34.00;;
51304;SDS011;37392;50.964;6.952;2024-02-28T01:50:55;92.70;;;36.67;;
51304;SDS011;37392;50.964;6.952;2024-02-28T01:53:20;92.18;;;35.40;;
51304;SDS011;37392;50.964;6.952;2024-02-28T01:55:47;87.20;;;34.25;;
51304;SDS011;37392;50.964;6.952;2024-02-28T01:58:12;96.93;;;36.65;;
51304;SDS011;37392;50.964;6.952;2024-02-28T02:00:38;97.18;;;36.30;;
51304;SDS011;37392;50.964;6.952;2024-02-28T02:03:05;103.30;;;40.25;;
51304;SDS011;37392;50.964;6.952;2024-02-28T02:05:30;111.05;;;40.65;;
51304;SDS011;37392;50.964;6.952;2024-02-28T02:07:59;110.55;;;45.42;;
51304;SDS011;37392;50.964;6.952;2024-02-28T02:10:26;117.18;;;43.08;;
51304;SDS011;37392;50.964;6.952;2024-02-28T02:12:55;113.95;;;42.28;;
51304;SDS011;37392;50.964;6.952;2024-02-28T02:15:32;117.07;;;43.42;;
51304;SDS011;37392;50.964;6.952;2024-02-28T02:17:58;112.45;;;43.58;;
51304;SDS011;37392;50.964;6.952;2024-02-28T02:20:24;114.80;;;44.90;;
51304;SDS011;37392;50.964;6.952;2024-02-28T02:22:52;107.10;;;43.08;;
51304;SDS011;37392;50.964;6.952;2024-02-28T02:25:18;106.90;;;41.83;;
51304;SDS011;37392;50.964;6.952;2024-02-28T02:27:44;119.80;;;45.75;;
51304;SDS011;37392;50.964;6.952;2024-02-28T02:30:09;114.60;;;42.53;;
51304;SDS011;37392;50.964;6.952;2024-02-28T02:32:36;132.70;;;46.70;;
51304;SDS011;37392;50.964;6.952;2024-02-28T02:35:01;117.28;;;44.35;;
51304;SDS011;37392;50.964;6.952;2024-02-28T02:37:27;113.38;;;45.20;;
51304;SDS011;37392;50.964;6.952;2024-02-28T02:39:52;128.20;;;49.17;;
51304;SDS011;37392;50.964;6.952;2024-02-28T02:42:18;116.65;;;47.33;;
51304;SDS011;37392;50.964;6.952;2024-02-28T02:44:44;125.35;;;47.17;;
51304;SDS011;37392;50.964;6.952;2024-02-28T02:47:09;126.40;;;48.95;;
51304;SDS011;37392;50.964;6.952;2024-02-28T02:49:35;127.53;;;48.00;;
51304;SDS011;37392;50.964;6.952;2024-02-28T02:52:01;122.35;;;49.83;;
51304;SDS011;37392;50.964;6.952;2024-02-28T02:54:26;120.30;;;46.65;;
51304;SDS011;37392;50.964;6.952;2024-02-28T02:56:52;129.35;;;50.47;;
51304;SDS011;37392;50.964;6.952;2024-02-28T02:59:17;132.55;;;52.35;;
51304;SDS011;37392;50.964;6.952;2024-02-28T03:01:46;123.47;;;49.30;;
51304;SDS011;37392;50.964;6.952;2024-02-28T03:04:12;148.07;;;58.22;;
51304;SDS011;37392;50.964;6.952;2024-02-28T03:06:37;125.80;;;47.25;;
51304;SDS011;37392;50.964;6.952;2024-02-28T03:09:02;120.22;;;47.53;;
51304;SDS011;37392;50.964;6.952;2024-02-28T03:11:28;125.90;;;48.63;;
51304;SDS011;37392;50.964;6.952;2024-02-28T03:13:54;125.15;;;47.95;;
51304;SDS011;37392;50.964;6.952;2024-02-28T03:16:19;123.93;;;49.40;;
51304;SDS011;37392;50.964;6.952;2024-02-28T03:18:45;129.50;;;48.30;;
51304;SDS011;37392;50.964;6.952;2024-02-28T03:21:10;111.40;;;45.90;;
51304;SDS011;37392;50.964;6.952;2024-02-28T03:23:36;121.35;;;45.95;;
51304;SDS011;37392;50.964;6.952;2024-02-28T03:26:01;117.25;;;45.58;;
51304;SDS011;37392;50.964;6.952;2024-02-28T03:28:28;109.30;;;44.05;;
51304;SDS011;37392;50.964;6.952;2024-02-28T03:30:54;111.50;;;44.97;;
51304;SDS011;37392;50.964;6.952;2024-02-28T03:33:19;105.28;;;43.85;;
51304;SDS011;37392;50.964;6.952;2024-02-28T03:35:45;127.15;;;48.50;;
51304;SDS011;37392;50.964;6.952;2024-02-28T03:38:11;117.88;;;48.58;;
51304;SDS011;37392;50.964;6.952;2024-02-28T03:40:36;120.57;;;48.72;;
51304;SDS011;37392;50.964;6.952;2024-02-28T03:43:02;127.93;;;48.13;;
51304;SDS011;37392;50.964;6.952;2024-02-28T03:45:28;127.47;;;48.70;;
51304;SDS011;37392;50.964;6.952;2024-02-28T03:47:56;129.60;;;48.15;;
51304;SDS011;37392;50.964;6.952;2024-02-28T03:50:22;117.10;;;45.80;;
51304;SDS011;37392;50.964;6.952;2024-02-28T03:52:47;130.77;;;50.00;;
51304;SDS011;37392;50.964;6.952;2024-02-28T03:55:13;129.23;;;48.47;;
51304;SDS011;37392;50.964;6.952;2024-02-28T03:57:40;129.38;;;48.65;;
51304;SDS011;37392;50.964;6.952;2024-02-28T04:00:06;124.93;;;48.05;;
51304;SDS011;37392;50.964;6.952;2024-02-28T04:02:33;122.45;;;49.35;;
51304;SDS011;37392;50.964;6.952;2024-02-28T04:04:59;119.88;;;46.30;;
51304;SDS011;37392;50.964;6.952;2024-02-28T04:07:25;123.60;;;47.97;;
51304;SDS011;37392;50.964;6.952;2024-02-28T04:09:50;124.65;;;45.92;;
51304;SDS011;37392;50.964;6.952;2024-02-28T04:12:15;121.00;;;43.65;;
51304;SDS011;37392;50.964;6.952;2024-02-28T04:14:41;129.55;;;48.85;;
51304;SDS011;37392;50.964;6.952;2024-02-28T04:17:06;136.75;;;50.97;;
51304;SDS011;37392;50.964;6.952;2024-02-28T04:19:33;134.82;;;48.95;;
51304;SDS011;37392;50.964;6.952;2024-02-28T04:22:02;126.63;;;48.17;;
51304;SDS011;37392;50.964;6.952;2024-02-28T04:24:28;131.70;;;51.05;;
51304;SDS011;37392;50.964;6.952;2024-02-28T04:26:53;124.00;;;47.08;;
51304;SDS011;37392;50.964;6.952;2024-02-28T04:29:19;133.85;;;48.90;;
51304;SDS011;37392;50.964;6.952;2024-02-28T04:31:44;125.10;;;47.80;;
51304;SDS011;37392;50.964;6.952;2024-02-28T04:34:10;135.38;;;51.17;;
51304;SDS011;37392;50.964;6.952;2024-02-28T04:36:35;146.32;;;50.50;;
51304;SDS011;37392;50.964;6.952;2024-02-28T04:39:01;130.15;;;49.35;;
51304;SDS011;37392;50.964;6.952;2024-02-28T04:41:29;119.55;;;46.65;;
51304;SDS011;37392;50.964;6.952;2024-02-28T04:43:54;139.20;;;54.70;;
51304;SDS011;37392;50.964;6.952;2024-02-28T04:46:20;133.65;;;50.72;;
51304;SDS011;37392;50.964;6.952;2024-02-28T04:48:45;125.28;;;49.30;;
51304;SDS011;37392;50.964;6.952;2024-02-28T04:51:11;132.43;;;52.83;;
51304;SDS011;37392;50.964;6.952;2024-02-28T04:53:36;136.32;;;49.50;;
51304;SDS011;37392;50.964;6.952;2024-02-28T04:56:04;141.07;;;51.35;;
51304;SDS011;37392;50.964;6.952;2024-02-28T04:58:29;134.65;;;49.95;;
51304;SDS011;37392;50.964;6.952;2024-02-28T05:00:55;124.20;;;49.33;;
51304;SDS011;37392;50.964;6.952;2024-02-28T05:03:20;134.45;;;51.38;;
51304;SDS011;37392;50.964;6.952;2024-02-28T05:05:47;129.88;;;49.78;;
51304;SDS011;37392;50.964;6.952;2024-02-28T05:08:12;131.98;;;49.90;;
51304;SDS011;37392;50.964;6.952;2024-02-28T05:10:38;138.50;;;50.50;;
51304;SDS011;37392;50.964;6.952;2024-02-28T05:13:05;148.77;;;53.17;;
51304;SDS011;37392;50.964;6.952;2024-02-28T05:15:30;131.82;;;50.67;;
51304;SDS011;37392;50.964;6.952;2024-02-28T05:17:56;142.93;;;49.45;;
51304;SDS011;37392;50.964;6.952;2024-02-28T05:20:21;123.07;;;48.58;;
51304;SDS011;37392;50.964;6.952;2024-02-28T05:22:47;124.57;;;47.78;;
51304;SDS011;37392;50.964;6.952;2024-02-28T05:25:12;128.30;;;49.92;;
51304;SDS011;37392;50.964;6.952;2024-02-28T05:27:38;139.65;;;48.03;;
51304;SDS011;37392;50.964;6.952;2024-02-28T05:30:03;131.60;;;50.15;;
51304;SDS011;37392;50.964;6.952;2024-02-28T05:32:31;122.60;;;49.33;;
51304;SDS011;37392;50.964;6.952;2024-02-28T05:34:57;134.85;;;48.15;;
51304;SDS011;37392;50.964;6.952;2024-02-28T05:37:23;124.47;;;49.90;;
51304;SDS011;37392;50.964;6.952;2024-02-28T05:39:50;135.75;;;52.50;;
51304;SDS011;37392;50.964;6.952;2024-02-28T05:42:15;134.82;;;48.45;;
51304;SDS011;37392;50.964;6.952;2024-02-28T05:44:47;133.93;;;48.72;;
51304;SDS011;37392;50.964;6.952;2024-02-28T05:47:13;128.27;;;48.25;;
51304;SDS011;37392;50.964;6.952;2024-02-28T05:49:39;127.95;;;49.00;;
51304;SDS011;37392;50.964;6.952;2024-02-28T05:52:05;136.40;;;49.55;;
51304;SDS011;37392;50.964;6.952;2024-02-28T05:54:30;122.32;;;48.33;;
51304;SDS011;37392;50.964;6.952;2024-02-28T05:56:56;138.50;;;48.58;;
51304;SDS011;37392;50.964;6.952;2024-02-28T05:59:22;122.65;;;44.72;;
51304;SDS011;37392;50.964;6.952;2024-02-28T06:01:47;127.63;;;48.38;;
51304;SDS011;37392;50.964;6.952;2024-02-28T06:04:12;127.05;;;48.78;;
51304;SDS011;37392;50.964;6.952;2024-02-28T06:06:38;133.20;;;48.53;;
51304;SDS011;37392;50.964;6.952;2024-02-28T06:09:04;126.07;;;47.20;;
51304;SDS011;37392;50.964;6.952;2024-02-28T06:11:29;139.45;;;48.95;;
51304;SDS011;37392;50.964;6.952;2024-02-28T06:13:55;127.43;;;46.25;;
51304;SDS011;37392;50.964;6.952;2024-02-28T06:16:20;138.98;;;49.60;;
51304;SDS011;37392;50.964;6.952;2024-02-28T06:18:46;131.27;;;50.33;;
51304;SDS011;37392;50.964;6.952;2024-02-28T06:21:12;132.13;;;47.17;;
51304;SDS011;37392;50.964;6.952;2024-02-28T06:23:39;118.20;;;47.03;;
51304;SDS011;37392;50.964;6.952;2024-02-28T06:26:04;130.73;;;45.58;;
51304;SDS011;37392;50.964;6.952;2024-02-28T06:28:30;126.20;;;48.22;;
51304;SDS011;37392;50.964;6.952;2024-02-28T06:30:57;132.02;;;45.83;;
51304;SDS011;37392;50.964;6.952;2024-02-28T06:33:22;130.38;;;45.38;;
51304;SDS011;37392;50.964;6.952;2024-02-28T06:35:48;130.77;;;47.17;;
51304;SDS011;37392;50.964;6.952;2024-02-28T06:38:13;128.93;;;47.40;;
51304;SDS011;37392;50.964;6.952;2024-02-28T06:40:39;128.80;;;46.35;;
51304;SDS011;37392;50.964;6.952;2024-02-28T06:43:05;136.73;;;48.08;;
51304;SDS011;37392;50.964;6.952;2024-02-28T06:45:31;136.10;;;45.80;;
51304;SDS011;37392;50.964;6.952;2024-02-28T06:47:57;132.20;;;47.50;;
51304;SDS011;37392;50.964;6.952;2024-02-28T06:50:23;130.23;;;47.25;;
51304;SDS011;37392;50.964;6.952;2024-02-28T06:52:48;142.23;;;49.08;;
51304;SDS011;37392;50.964;6.952;2024-02-28T06:55:14;126.55;;;43.78;;
51304;SDS011;37392;50.964;6.952;2024-02-28T06:57:41;122.97;;;48.28;;
51304;SDS011;37392;50.964;6.952;2024-02-28T07:00:08;132.95;;;48.63;;
51304;SDS011;37392;50.964;6.952;2024-02-28T07:02:36;141.80;;;50.42;;
51304;SDS011;37392;50.964;6.952;2024-02-28T07:05:02;125.00;;;46.53;;
51304;SDS011;37392;50.964;6.952;2024-02-28T07:07:31;124.63;;;44.70;;
51304;SDS011;37392;50.964;6.952;2024-02-28T07:09:58;132.63;;;47.10;;
51304;SDS011;37392;50.964;6.952;2024-02-28T07:12:23;128.85;;;45.13;;
51304;SDS011;37392;50.964;6.952;2024-02-28T07:14:52;133.65;;;47.75;;
51304;SDS011;37392;50.964;6.952;2024-02-28T07:17:17;123.75;;;46.72;;
51304;SDS011;37392;50.964;6.952;2024-02-28T07:19:43;133.10;;;49.65;;
51304;SDS011;37392;50.964;6.952;2024-02-28T07:22:08;147.25;;;50.45;;
51304;SDS011;37392;50.964;6.952;2024-02-28T07:24:34;132.05;;;48.50;;
51304;SDS011;37392;50.964;6.952;2024-02-28T07:26:59;117.13;;;44.10;;
51304;SDS011;37392;50.964;6.952;2024-02-28T07:29:25;133.07;;;47.92;;
51304;SDS011;37392;50.964;6.952;2024-02-28T07:31:51;143.40;;;48.78;;
51304;SDS011;37392;50.964;6.952;2024-02-28T07:34:16;131.38;;;49.65;;
51304;SDS011;37392;50.964;6.952;2024-02-28T07:36:42;127.28;;;46.38;;
51304;SDS011;37392;50.964;6.952;2024-02-28T07:39:07;146.57;;;51.53;;
51304;SDS011;37392;50.964;6.952;2024-02-28T07:41:37;133.07;;;50.67;;
51304;SDS011;37392;50.964;6.952;2024-02-28T07:44:03;136.50;;;51.38;;
51304;SDS011;37392;50.964;6.952;2024-02-28T07:46:30;139.02;;;49.50;;
51304;SDS011;37392;50.964;6.952;2024-02-28T07:48:55;135.40;;;49.53;;
51304;SDS011;37392;50.964;6.952;2024-02-28T07:51:21;126.45;;;50.97;;
51304;SDS011;37392;50.964;6.952;2024-02-28T07:53:47;151.45;;;50.97;;
51304;SDS011;37392;50.964;6.952;2024-02-28T07:56:16;135.30;;;51.10;;
51304;SDS011;37392;50.964;6.952;2024-02-28T07:58:42;139.55;;;50.88;;
51304;SDS011;37392;50.964;6.952;2024-02-28T08:01:08;131.13;;;50.67;;
51304;SDS011;37392;50.964;6.952;2024-02-28T08:03:34;132.57;;;49.60;;
51304;SDS011;37392;50.964;6.952;2024-02-28T08:05:59;120.93;;;46.42;;
51304;SDS011;37392;50.964;6.952;2024-02-28T08:08:28;131.80;;;50.25;;
51304;SDS011;37392;50.964;6.952;2024-02-28T08:10:53;145.65;;;54.35;;
51304;SDS011;37392;50.964;6.952;2024-02-28T08:13:19;135.63;;;49.60;;
51304;SDS011;37392;50.964;6.952;2024-02-28T08:15:45;123.03;;;46.60;;
51304;SDS011;37392;50.964;6.952;2024-02-28T08:18:11;137.65;;;51.15;;
51304;SDS011;37392;50.964;6.952;2024-02-28T08:20:37;130.80;;;50.85;;
51304;SDS011;37392;50.964;6.952;2024-02-28T08:23:03;127.82;;;47.50;;
51304;SDS011;37392;50.964;6.952;2024-02-28T08:25:30;119.68;;;47.13;;
51304;SDS011;37392;50.964;6.952;2024-02-28T08:27:55;118.28;;;49.28;;
51304;SDS011;37392;50.964;6.952;2024-02-28T08:30:21;116.50;;;49.25;;
51304;SDS011;37392;50.964;6.952;2024-02-28T08:32:47;133.00;;;50.90;;
51304;SDS011;37392;50.964;6.952;2024-02-28T08:35:12;124.78;;;50.00;;
51304;SDS011;37392;50.964;6.952;2024-02-28T08:37:39;130.95;;;51.47;;
51304;SDS011;37392;50.964;6.952;2024-02-28T08:40:06;129.02;;;51.47;;
51304;SDS011;37392;50.964;6.952;2024-02-28T08:42:33;128.52;;;53.60;;
51304;SDS011;37392;50.964;6.952;2024-02-28T08:44:59;131.60;;;50.22;;
51304;SDS011;37392;50.964;6.952;2024-02-28T08:47:25;125.68;;;51.60;;
51304;SDS011;37392;50.964;6.952;2024-02-28T08:49:55;135.95;;;55.28;;
51304;SDS011;37392;50.964;6.952;2024-02-28T08:52:20;121.90;;;52.58;;
51304;SDS011;37392;50.964;6.952;2024-02-28T08:54:47;114.60;;;48.30;;
51304;SDS011;37392;50.964;6.952;2024-02-28T08:57:13;116.45;;;49.38;;
51304;SDS011;37392;50.964;6.952;2024-02-28T08:59:39;119.63;;;49.58;;
51304;SDS011;37392;50.964;6.952;2024-02-28T09:02:05;113.72;;;47.83;;
51304;SDS011;37392;50.964;6.952;2024-02-28T09:04:32;117.05;;;48.63;;
51304;SDS011;37392;50.964;6.952;2024-02-28T09:06:58;114.43;;;48.97;;
51304;SDS011;37392;50.964;6.952;2024-02-28T09:09:24;113.28;;;48.22;;
51304;SDS011;37392;50.964;6.952;2024-02-28T09:11:49;106.35;;;45.47;;
51304;SDS011;37392;50.964;6.952;2024-02-28T09:14:15;111.78;;;47.65;;
51304;SDS011;37392;50.964;6.952;2024-02-28T09:16:40;111.75;;;49.35;;
51304;SDS011;37392;50.964;6.952;2024-02-28T09:19:06;95.32;;;42.13;;
51304;SDS011;37392;50.964;6.952;2024-02-28T09:21:31;110.55;;;45.80;;
51304;SDS011;37392;50.964;6.952;2024-02-28T09:23:57;101.57;;;43.70;;
51304;SDS011;37392;50.964;6.952;2024-02-28T09:26:22;94.63;;;42.42;;
51304;SDS011;37392;50.964;6.952;2024-02-28T09:28:48;91.20;;;40.50;;
51304;SDS011;37392;50.964;6.952;2024-02-28T09:31:14;97.85;;;43.10;;
51304;SDS011;37392;50.964;6.952;2024-02-28T09:33:40;95.75;;;44.10;;
51304;SDS011;37392;50.964;6.952;2024-02-28T09:36:06;96.47;;;45.50;;
51304;SDS011;37392;50.964;6.952;2024-02-28T09:38:32;106.50;;;47.20;;
51304;SDS011;37392;50.964;6.952;2024-02-28T09:40:59;105.05;;;45.05;;
51304;SDS011;37392;50.964;6.952;2024-02-28T09:43:30;107.47;;;45.05;;
51304;SDS011;37392;50.964;6.952;2024-02-28T09:46:05;95.57;;;42.42;;
51304;SDS011;37392;50.964;6.952;2024-02-28T09:48:36;88.35;;;40.90;;
51304;SDS011;37392;50.964;6.952;2024-02-28T09:51:05;92.57;;;44.15;;
51304;SDS011;37392;50.964;6.952;2024-02-28T09:53:31;101.00;;;44.25;;
51304;SDS011;37392;50.964;6.952;2024-02-28T09:55:57;89.65;;;40.80;;
51304;SDS011;37392;50.964;6.952;2024-02-28T09:58:23;96.95;;;45.63;;
51304;SDS011;37392;50.964;6.952;2024-02-28T10:00:50;98.00;;;43.88;;
51304;SDS011;37392;50.964;6.952;2024-02-28T10:03:19;104.20;;;45.33;;
51304;SDS011;37392;50.964;6.952;2024-02-28T10:05:45;91.97;;;42.08;;
51304;SDS011;37392;50.964;6.952;2024-02-28T10:08:12;89.40;;;43.50;;
51304;SDS011;37392;50.964;6.952;2024-02-28T10:10:44;91.30;;;40.70;;
51304;SDS011;37392;50.964;6.952;2024-02-28T10:13:11;91.88;;;43.92;;
51304;SDS011;37392;50.964;6.952;2024-02-28T10:15:36;88.03;;;41.63;;
51304;SDS011;37392;50.964;6.952;2024-02-28T10:18:02;88.47;;;41.38;;
51304;SDS011;37392;50.964;6.952;2024-02-28T10:20:30;90.05;;;42.83;;
51304;SDS011;37392;50.964;6.952;2024-02-28T10:22:56;80.90;;;41.95;;
51304;SDS011;37392;50.964;6.952;2024-02-28T10:25:21;73.57;;;39.22;;
51304;SDS011;37392;50.964;6.952;2024-02-28T10:27:47;83.72;;;40.80;;
51304;SDS011;37392;50.964;6.952;2024-02-28T10:30:12;80.05;;;40.03;;
51304;SDS011;37392;50.964;6.952;2024-02-28T10:32:47;83.65;;;41.92;;
51304;SDS011;37392;50.964;6.952;2024-02-28T10:35:19;77.18;;;41.47;;
51304;SDS011;37392;50.964;6.952;2024-02-28T10:37:46;85.28;;;42.55;;
51304;SDS011;37392;50.964;6.952;2024-02-28T10:40:13;84.65;;;42.85;;
51304;SDS011;37392;50.964;6.952;2024-02-28T10:42:40;86.45;;;42.78;;
51304;SDS011;37392;50.964;6.952;2024-02-28T10:45:07;87.80;;;42.22;;
51304;SDS011;37392;50.964;6.952;2024-02-28T10:47:40;75.38;;;37.53;;
51304;SDS011;37392;50.964;6.952;2024-02-28T10:50:06;82.57;;;41.13;;
51304;SDS011;37392;50.964;6.952;2024-02-28T10:52:33;91.28;;;41.28;;
51304;SDS011;37392;50.964;6.952;2024-02-28T10:54:59;91.85;;;43.30;;
51304;SDS011;37392;50.964;6.952;2024-02-28T10:57:27;81.03;;;40.53;;
51304;SDS011;37392;50.964;6.952;2024-02-28T10:59:55;90.57;;;44.20;;
51304;SDS011;37392;50.964;6.952;2024-02-28T11:02:22;84.15;;;41.80;;
51304;SDS011;37392;50.964;6.952;2024-02-28T11:04:51;70.88;;;36.65;;
51304;SDS011;37392;50.964;6.952;2024-02-28T11:07:20;85.35;;;39.55;;
51304;SDS011;37392;50.964;6.952;2024-02-28T11:09:46;84.63;;;43.05;;
51304;SDS011;37392;50.964;6.952;2024-02-28T11:12:27;82.68;;;41.20;;
51304;SDS011;37392;50.964;6.952;2024-02-28T11:15:00;79.03;;;40.95;;
51304;SDS011;37392;50.964;6.952;2024-02-28T11:17:29;71.10;;;35.63;;
51304;SDS011;37392;50.964;6.952;2024-02-28T11:19:56;84.65;;;38.78;;
51304;SDS011;37392;50.964;6.952;2024-02-28T11:22:21;83.72;;;39.17;;
51304;SDS011;37392;50.964;6.952;2024-02-28T11:24:47;81.65;;;40.92;;
51304;SDS011;37392;50.964;6.952;2024-02-28T11:27:14;90.13;;;42.58;;
51304;SDS011;37392;50.964;6.952;2024-02-28T11:29:41;74.90;;;37.05;;
51304;SDS011;37392;50.964;6.952;2024-02-28T11:32:07;77.03;;;38.55;;
51304;SDS011;37392;50.964;6.952;2024-02-28T11:34:35;82.15;;;40.45;;
51304;SDS011;37392;50.964;6.952;2024-02-28T11:37:02;82.68;;;38.80;;
51304;SDS011;37392;50.964;6.952;2024-02-28T11:39:28;79.45;;;38.15;;
51304;SDS011;37392;50.964;6.952;2024-02-28T11:42:07;76.43;;;37.75;;
51304;SDS011;37392;50.964;6.952;2024-02-28T11:44:39;74.65;;;37.40;;
51304;SDS011;37392;50.964;6.952;2024-02-28T11:47:05;83.05;;;40.72;;
51304;SDS011;37392;50.964;6.952;2024-02-28T11:49:35;79.28;;;38.03;;
51304;SDS011;37392;50.964;6.952;2024-02-28T11:52:00;81.78;;;39.08;;
51304;SDS011;37392;50.964;6.952;2024-02-28T11:54:26;67.20;;;34.55;;
51304;SDS011;37392;50.964;6.952;2024-02-28T11:56:51;72.05;;;37.05;;
51304;SDS011;37392;50.964;6.952;2024-02-28T11:59:17;78.57;;;37.88;;
51304;SDS011;37392;50.964;6.952;2024-02-28T12:01:43;71.40;;;35.30;;
51304;SDS011;37392;50.964;6.952;2024-02-28T12:04:09;80.82;;;34.80;;
51304;SDS011;37392;50.964;6.952;2024-02-28T12:06:39;68.95;;;33.55;;
51304;SDS011;37392;50.964;6.952;2024-02-28T12:09:06;70.80;;;34.55;;
51304;SDS011;37392;50.964;6.952;2024-02-28T12:11:33;77.50;;;34.53;;
51304;SDS011;37392;50.964;6.952;2024-02-28T12:14:07;68.82;;;31.73;;
51304;SDS011;37392;50.964;6.952;2024-02-28T12:16:37;71.00;;;32.03;;
51304;SDS011;37392;50.964;6.952;2024-02-28T12:19:04;68.90;;;32.35;;
51304;SDS011;37392;50.964;6.952;2024-02-28T12:21:39;73.53;;;33.55;;
51304;SDS011;37392;50.964;6.952;2024-02-28T12:24:08;67.95;;;32.67;;
51304;SDS011;37392;50.964;6.952;2024-02-28T12:26:35;61.43;;;31.80;;
51304;SDS011;37392;50.964;6.952;2024-02-28T12:29:01;59.08;;;30.58;;
51304;SDS011;37392;50.964;6.952;2024-02-28T12:31:27;64.70;;;32.40;;
51304;SDS011;37392;50.964;6.952;2024-02-28T12:33:53;67.53;;;34.13;;
51304;SDS011;37392;50.964;6.952;2024-02-28T12:36:19;67.85;;;32.25;;
51304;SDS011;37392;50.964;6.952;2024-02-28T12:38:46;62.08;;;31.63;;
51304;SDS011;37392;50.964;6.952;2024-02-28T12:41:12;65.30;;;30.85;;
51304;SDS011;37392;50.964;6.952;2024-02-28T12:43:38;59.22;;;30.50;;
51304;SDS011;37392;50.964;6.952;2024-02-28T12:46:06;58.47;;;30.00;;
51304;SDS011;37392;50.964;6.952;2024-02-28T12:48:38;55.60;;;28.85;;
51304;SDS011;37392;50.964;6.952;2024-02-28T12:51:06;63.38;;;29.50;;
51304;SDS011;37392;50.964;6.952;2024-02-28T12:53:33;60.40;;;28.52;;
51304;SDS011;37392;50.964;6.952;2024-02-28T12:55:59;60.92;;;28.88;;
51304;SDS011;37392;50.964;6.952;2024-02-28T12:58:25;57.03;;;28.42;;
51304;SDS011;37392;50.964;6.952;2024-02-28T13:00:51;60.90;;;30.48;;
51304;SDS011;37392;50.964;6.952;2024-02-28T13:03:17;58.95;;;30.35;;
51304;SDS011;37392;50.964;6.952;2024-02-28T13:05:43;54.80;;;26.92;;
51304;SDS011;37392;50.964;6.952;2024-02-28T13:08:09;60.25;;;28.23;;
51304;SDS011;37392;50.964;6.952;2024-02-28T13:10:35;53.30;;;26.48;;
51304;SDS011;37392;50.964;6.952;2024-02-28T13:13:04;57.53;;;28.23;;
51304;SDS011;37392;50.964;6.952;2024-02-28T13:15:31;56.10;;;26.60;;
51304;SDS011;37392;50.964;6.952;2024-02-28T13:17:57;57.47;;;27.02;;
51304;SDS011;37392;50.964;6.952;2024-02-28T13:20:23;57.13;;;27.65;;
51304;SDS011;37392;50.964;6.952;2024-02-28T13:22:48;47.72;;;24.75;;
51304;SDS011;37392;50.964;6.952;2024-02-28T13:25:14;51.25;;;25.90;;
51304;SDS011;37392;50.964;6.952;2024-02-28T13:27:40;50.10;;;26.40;;
51304;SDS011;37392;50.964;6.952;2024-02-28T13:30:06;51.78;;;25.45;;
51304;SDS011;37392;50.964;6.952;2024-02-28T13:32:32;52.95;;;26.15;;
51304;SDS011;37392;50.964;6.952;2024-02-28T13:34:58;52.13;;;25.48;;
51304;SDS011;37392;50.964;6.952;2024-02-28T13:37:24;50.33;;;23.90;;
51304;SDS011;37392;50.964;6.952;2024-02-28T13:39:50;60.60;;;29.50;;
51304;SDS011;37392;50.964;6.952;2024-02-28T13:42:17;65.55;;;26.35;;
51304;SDS011;37392;50.964;6.952;2024-02-28T13:44:45;59.15;;;26.65;;
51304;SDS011;37392;50.964;6.952;2024-02-28T13:47:11;48.95;;;24.33;;
51304;SDS011;37392;50.964;6.952;2024-02-28T13:49:38;54.92;;;26.08;;
51304;SDS011;37392;50.964;6.952;2024-02-28T13:52:04;50.47;;;25.23;;
51304;SDS011;37392;50.964;6.952;2024-02-28T13:54:30;52.65;;;24.02;;
51304;SDS011;37392;50.964;6.952;2024-02-28T13:56:56;48.83;;;23.95;;
51304;SDS011;37392;50.964;6.952;2024-02-28T13:59:22;55.88;;;25.73;;
51304;SDS011;37392;50.964;6.952;2024-02-28T14:01:48;55.40;;;24.55;;
51304;SDS011;37392;50.964;6.952;2024-02-28T14:04:14;46.17;;;22.23;;
51304;SDS011;37392;50.964;6.952;2024-02-28T14:06:41;45.53;;;22.10;;
51304;SDS011;37392;50.964;6.952;2024-02-28T14:09:06;50.97;;;23.67;;